Data for 07/14/2014

Time Sea-Level Adjusted Pressure Absolute Pressure Temperature Relative Humidity Dew Point   
(mb) (inHg) (mb) (inHg) (C) (F) (%) (C) (F)
00:05 1026 30.3 855 25.25 20.7 69.3 36 5.5 41.9
00:10 1026 30.3 855 25.25 20.5 68.9 37 5.6 42.2
00:15 1026 30.3 855 25.25 20.3 68.5 38 5.7 42.3
00:20 1026 30.3 855 25.25 20.1 68.2 38 5.6 42.1
00:25 1026 30.3 855 25.25 20 68.1 39 5.7 42.2
00:30 1026 30.3 855 25.25 20.1 68.2 38 5.6 42
00:35 1026 30.3 855 25.25 20.1 68.2 39 5.8 42.4
00:40 1026 30.3 855 25.25 20 67.9 39 5.8 42.5
00:45 1026 30.3 855 25.25 19.8 67.7 39 5.8 42.4
00:50 1026 30.3 855 25.25 19.8 67.6 40 5.9 42.6
00:55 1026 30.3 855 25.25 19.7 67.4 40 5.9 42.7
01:00 1026 30.3 855 25.25 19.6 67.3 40 5.9 42.6
01:05 1026 30.3 855 25.25 19.6 67.3 40 5.9 42.6
01:10 1026 30.3 855 25.25 19.6 67.3 40 5.9 42.7
01:15 1026 30.3 855 25.25 19.6 67.2 41 6 42.7
01:20 1026 30.3 855 25.25 19.5 67.2 41 6 42.8
01:25 1026 30.3 855 25.25 19.5 67.1 41 6 42.7
01:30 1026 30.3 855 25.25 19.5 67 41 6 42.8
01:35 1026 30.3 855 25.25 19.3 66.8 42 6.2 43.1
01:40 1026 30.3 855 25.25 19.2 66.5 42 6 42.8
01:45 1026 30.3 855 25.25 19.2 66.5 42 6.1 43
01:50 1026 30.3 855 25.25 19.1 66.5 42 6.1 42.9
01:55 1026 30.3 855 25.25 19.1 66.5 42 6.2 43.1
02:00 1026 30.3 855 25.25 19.1 66.4 42 6.1 43.1
02:05 1026 30.3 855 25.25 19.1 66.4 42 6.1 43
02:10 1026 30.3 855 25.25 19.1 66.4 42 6.1 43.1
02:15 1026 30.3 855 25.25 19.1 66.3 42 6.1 43
02:20 1026 30.3 855 25.25 19.1 66.3 42 6.1 43
02:25 1026 30.3 855 25.25 19.1 66.3 42 6.1 42.9
02:30 1026 30.3 855 25.25 19.1 66.3 42 6.1 43
02:35 1026 30.3 855 25.25 19 66.2 42 6.1 42.9
02:40 1026 30.3 855 25.25 19.1 66.3 42 6.1 43
02:45 1026 30.3 855 25.25 19 66.3 43 6.1 43.1
02:50 1026 30.3 855 25.25 19 66.2 43 6.2 43.2
02:55 1026 30.3 855 25.25 18.9 66 43 6.3 43.3
03:00 1026 30.3 855 25.25 18.9 66.1 43 6.3 43.3
03:05 1026 30.3 855 25.25 18.9 66 43 6.3 43.4
03:10 1026 30.3 855 25.25 18.8 65.8 44 6.4 43.5
03:15 1026 30.3 855 25.25 18.7 65.6 45 6.5 43.7
03:20 1026 30.3 855 25.25 18.6 65.4 45 6.5 43.7
03:25 1026 30.3 855 25.25 18.5 65.4 45 6.5 43.6
03:30 1026 30.3 855 25.25 18.5 65.3 45 6.5 43.8
03:35 1026 30.3 855 25.25 18.4 65.1 46 6.6 43.8
03:40 1026 30.3 855 25.25 18.3 65 46 6.6 43.8
03:45 1026 30.3 855 25.25 18.3 64.9 46 6.6 43.8
03:50 1026 30.3 855 25.25 18.2 64.7 47 6.8 44.2
03:55 1026 30.3 855 25.25 18 64.5 47 6.7 44
04:00 1026 30.3 855 25.25 18 64.3 48 6.8 44.2
04:05 1026 30.3 855 25.25 17.9 64.2 48 6.9 44.4
04:10 1026 30.3 855 25.25 17.9 64.2 48 7 44.5
04:15 1026 30.3 855 25.25 17.8 64 49 7.1 44.7
04:20 1026 30.3 855 25.25 17.7 63.8 50 7.1 44.8
04:25 1026 30.3 855 25.25 17.6 63.6 50 7.1 44.8
04:30 1026 30.3 855 25.25 17.6 63.6 50 7.2 44.9
04:35 1026 30.3 855 25.25 17.5 63.5 50 7.2 44.9
04:40 1026 30.3 855 25.25 17.5 63.5 50 7.2 44.9
04:45 1026 30.3 855 25.25 17.5 63.5 51 7.3 45.2
04:50 1026 30.3 855 25.25 17.4 63.4 51 7.3 45.2
04:55 1026 30.3 855 25.25 17.4 63.2 52 7.4 45.3
05:00 1026 30.3 855 25.25 17.3 63.1 52 7.5 45.5
05:05 1026 30.3 855 25.25 17.2 62.9 52 7.4 45.4
05:10 1026 30.3 855 25.25 17.2 62.9 53 7.5 45.5
05:15 1026 30.3 856 25.28 17.1 62.7 53 7.5 45.4
05:20 1026 30.3 856 25.28 17 62.6 54 7.6 45.8
05:25 1026 30.3 856 25.28 16.9 62.4 54 7.6 45.7
05:30 1026 30.3 856 25.28 16.8 62.2 54 7.6 45.7
05:35 1027 30.33 856 25.28 16.7 62.1 55 7.6 45.8
05:40 1027 30.33 856 25.28 16.7 62 55 7.7 45.8
05:45 1027 30.33 856 25.28 16.6 61.8 55 7.7 45.9
05:50 1027 30.33 856 25.28 16.5 61.7 56 7.8 46
05:55 1027 30.33 856 25.28 16.5 61.6 56 7.8 46
06:00 1027 30.33 856 25.28 16.5 61.8 56 7.8 46
06:05 1027 30.33 856 25.28 16.5 61.7 56 7.8 46
06:10 1027 30.33 856 25.28 16.6 61.8 56 7.8 46.1
06:15 1027 30.33 856 25.28 16.5 61.7 56 7.9 46.2
06:20 1027 30.33 856 25.28 16.5 61.7 56 7.9 46.1
06:25 1027 30.33 856 25.28 16.6 61.8 56 7.8 46
06:30 1027 30.33 856 25.28 16.8 62.2 56 7.9 46.3
06:35 1027 30.33 856 25.28 16.9 62.4 55 7.8 46.1
06:40 1027 30.33 856 25.28 17.1 62.7 54 7.9 46.2
06:45 1027 30.33 856 25.28 17.2 62.9 54 7.9 46.3
06:50 1027 30.33 856 25.28 17.3 63.2 54 8 46.4
06:55 1027 30.33 856 25.28 17.4 63.2 54 8.1 46.5
07:00 1027 30.33 856 25.28 17.1 62.8 55 8.1 46.5
07:05 1027 30.33 856 25.28 17.2 62.9 55 8 46.5
07:10 1027 30.33 856 25.28 17.5 63.4 53 7.9 46.2
07:15 1027 30.33 856 25.28 17.6 63.7 53 8.1 46.6
07:20 1027 30.33 856 25.28 17.8 64 52 8 46.4
07:25 1027 30.33 856 25.28 17.7 63.9 52 7.9 46.2
07:30 1027 30.33 856 25.28 17.9 64.3 51 7.9 46.2
07:35 1027 30.33 856 25.28 18 64.4 51 7.8 46.1
07:40 1027 30.33 856 25.28 18 64.4 51 7.7 45.9
07:45 1027 30.33 856 25.28 18.1 64.6 51 7.9 46.2
07:50 1027 30.33 856 25.28 18.2 64.7 51 7.9 46.2
07:55 1027 30.33 856 25.28 18.3 65 50 8 46.3
08:00 1027 30.33 856 25.28 18.5 65.3 50 8 46.5
08:05 1027 30.33 856 25.28 18.6 65.4 49 7.8 46.1
08:10 1027 30.33 856 25.28 18.7 65.6 50 8.1 46.7
08:15 1027 30.33 856 25.28 18.6 65.4 50 8.1 46.6
08:20 1027 30.33 856 25.28 18.7 65.7 50 8.1 46.6
08:25 1027 30.33 856 25.28 19.1 66.3 49 8.3 46.9
08:30 1027 30.33 856 25.28 19.5 67 48 8.4 47.1
08:35 1027 30.33 856 25.28 19.7 67.5 48 8.5 47.2
08:40 1027 30.33 856 25.28 19.7 67.4 48 8.5 47.3
08:45 1027 30.33 856 25.28 19.7 67.4 47 8.3 47
08:50 1027 30.33 856 25.28 20.1 68.2 47 8.6 47.5
08:55 1027 30.33 856 25.28 20 68 47 8.6 47.4
09:00 1027 30.33 856 25.28 19.8 67.6 48 8.6 47.4
09:05 1027 30.33 856 25.28 19.8 67.6 47 8.4 47.1
09:10 1027 30.33 856 25.28 19.7 67.5 49 8.7 47.7
09:15 1027 30.33 856 25.28 19.6 67.3 50 8.9 48.1
09:20 1027 30.33 856 25.28 19.8 67.6 48 8.5 47.2
09:25 1027 30.33 856 25.28 19.8 67.7 49 8.9 48.1
09:30 1027 30.33 856 25.28 19.7 67.5 49 8.7 47.6
09:35 1027 30.33 856 25.28 19.7 67.4 48 8.6 47.5
09:40 1027 30.33 856 25.28 19.9 67.7 48 8.5 47.4
09:45 1027 30.33 856 25.28 19.9 67.9 48 8.6 47.5
09:50 1027 30.33 856 25.28 20 68 49 9 48.2
09:55 1027 30.33 856 25.28 20.1 68.1 48 8.9 48
10:00 1027 30.33 856 25.28 20.1 68.3 48 8.9 48.1
10:05 1027 30.33 856 25.28 20.1 68.1 49 9 48.2
10:10 1027 30.33 856 25.28 20.1 68.2 48 8.8 47.9
10:15 1027 30.33 856 25.28 20.1 68.2 47 8.6 47.6
10:20 1027 30.33 856 25.28 20.1 68.1 48 9 48.2
10:25 1027 30.33 856 25.28 20.3 68.5 46 8.5 47.3
10:30 1027 30.33 856 25.28 20.5 68.9 46 8.7 47.6
10:35 1027 30.33 856 25.28 20.5 68.8 47 8.9 48
10:40 1027 30.33 856 25.28 20.5 68.9 46 8.5 47.3
10:45 1027 30.33 856 25.28 20.7 69.3 45 8.5 47.3
10:50 1027 30.33 856 25.28 21.1 69.9 44 8.6 47.6
10:55 1027 30.33 856 25.28 20.9 69.7 45 8.8 47.8
11:00 1027 30.33 856 25.28 21.3 70.4 44 8.7 47.7
11:05 1027 30.33 856 25.28 21.6 70.8 43 8.6 47.5
11:10 1027 30.33 856 25.28 22 71.5 42 8.7 47.6
11:15 1027 30.33 856 25.28 22.2 71.9 42 8.7 47.7
11:20 1027 30.33 856 25.28 22.4 72.4 41 8.7 47.7
11:25 1026 30.3 856 25.28 22.6 72.6 41 8.9 48
11:30 1026 30.3 856 25.28 22.6 72.6 40 8.3 47
11:35 1026 30.3 856 25.28 22.4 72.2 40 8.2 46.8
11:40 1026 30.3 856 25.28 22.2 72 41 8.5 47.3
11:45 1026 30.3 856 25.28 22.3 72.2 39 8.1 46.5
11:50 1026 30.3 856 25.28 22.5 72.4 40 8.4 47.1
11:55 1026 30.3 856 25.28 22.6 72.7 39 8 46.4
12:00 1026 30.3 856 25.28 22.5 72.5 38 7.8 46.1
12:05 1026 30.3 856 25.28 22.5 72.4 40 8.3 47
12:10 1026 30.3 856 25.28 22.6 72.7 41 8.7 47.7
12:15 1026 30.3 856 25.28 22.7 72.8 41 8.8 47.9
12:20 1026 30.3 856 25.28 22.6 72.7 43 9.5 49.1
12:25 1026 30.3 856 25.28 22.8 73.1 40 8.9 48
12:30 1026 30.3 856 25.28 23.1 73.6 39 8.6 47.5
12:35 1026 30.3 856 25.28 23.1 73.5 39 8.5 47.3
12:40 1026 30.3 856 25.28 23.3 73.9 40 9.2 48.5
12:45 1026 30.3 856 25.28 23.2 73.7 41 9.4 48.9
12:50 1026 30.3 855 25.25 23.3 73.9 40 9 48.2
12:55 1026 30.3 856 25.28 23.4 74.2 41 9.5 49.1
13:00 1026 30.3 855 25.25 23.3 74 41 9.4 48.9
13:05 1026 30.3 855 25.25 23.2 73.8 39 8.7 47.6
13:10 1026 30.3 855 25.25 23.1 73.7 40 9.2 48.5
13:15 1026 30.3 855 25.25 23.1 73.6 39 8.8 47.8
13:20 1026 30.3 855 25.25 23.3 73.9 38 8.4 47.1
13:25 1026 30.3 855 25.25 23.5 74.3 40 9.2 48.5
13:30 1026 30.3 855 25.25 23.6 74.6 40 9.4 49
13:35 1026 30.3 855 25.25 23.6 74.5 41 10 50
13:40 1026 30.3 855 25.25 23.3 73.9 43 10.3 50.5
13:45 1025 30.27 855 25.25 23.1 73.6 44 10.4 50.7
13:50 1025 30.27 855 25.25 23.3 74 43 10.4 50.7
13:55 1025 30.27 854 25.22 23.4 74.1 43 10.4 50.8
14:00 1025 30.27 854 25.22 23.3 74 44 10.6 51.2
14:05 1025 30.27 854 25.22 23.2 73.8 44 10.4 50.7
14:10 1025 30.27 854 25.22 23.3 73.9 44 10.5 51
14:15 1025 30.27 854 25.22 23.1 73.7 45 10.7 51.3
14:20 1025 30.27 854 25.22 22.9 73.2 44 10.2 50.3
14:25 1024 30.24 854 25.22 22.7 72.8 43 9.5 49.1
14:30 1024 30.24 854 25.22 22.5 72.5 44 9.7 49.4
14:35 1024 30.24 854 25.22 22.4 72.4 44 9.6 49.3
14:40 1024 30.24 853 25.19 22.4 72.2 44 9.8 49.6
14:45 1024 30.24 854 25.22 22.3 72.2 44 9.6 49.3
14:50 1025 30.27 854 25.22 22.4 72.4 43 9.3 48.7
14:55 1025 30.27 855 25.25 22.6 72.8 42 9.1 48.4
15:00 1026 30.3 855 25.25 22.9 73.3 41 9.3 48.7
15:05 1026 30.3 855 25.25 23 73.4 42 9.5 49.2
15:10 1026 30.3 855 25.25 23.3 74 40 9.1 48.4
15:15 1025 30.27 855 25.25 23.4 74.1 40 9 48.2
15:20 1025 30.27 855 25.25 23.1 73.6 40 9.1 48.4
15:25 1025 30.27 854 25.22 23 73.3 41 9 48.3
15:30 1024 30.24 854 25.22 22.7 72.9 42 9.4 48.9
15:35 1024 30.24 853 25.19 22.6 72.6 40 8.7 47.6
15:40 1023 30.21 852 25.16 22.5 72.5 41 8.7 47.7
15:45 1023 30.21 852 25.16 22.5 72.4 40 8.5 47.3
15:50 1023 30.21 852 25.16 22.5 72.6 40 8.5 47.3
15:55 1023 30.21 852 25.16 22.7 72.8 39 8.1 46.5
16:00 1023 30.21 852 25.16 23 73.4 37 7.7 45.9
16:05 1023 30.21 852 25.16 23.4 74 37 8 46.4
16:10 1023 30.21 853 25.19 23.5 74.2 36 7.7 45.8
16:15 1023 30.21 853 25.19 23.9 74.9 36 8 46.3
16:20 1023 30.21 853 25.19 24.3 75.7 35 7.9 46.2
16:25 1023 30.21 853 25.19 24 75.3 35 8 46.3
16:30 1023 30.21 853 25.19 24.4 75.9 34 7.7 45.8
16:35 1023 30.21 852 25.16 24.5 76 33 7.4 45.3
16:40 1023 30.21 852 25.16 24.5 76 34 7.6 45.7
16:45 1023 30.21 852 25.16 24.6 76.3 33 7.4 45.4
16:50 1023 30.21 852 25.16 24.4 76 34 7.7 45.8
16:55 1023 30.21 852 25.16 24.5 76.1 33 7.4 45.4
17:00 1023 30.21 852 25.16 24.4 75.9 33 7.4 45.2
17:05 1023 30.21 852 25.16 24.3 75.8 33 7.3 45.2
17:10 1023 30.21 852 25.16 24.2 75.6 34 7.6 45.7
17:15 1022 30.18 852 25.16 24.3 75.8 34 7.6 45.7
17:20 1023 30.21 852 25.16 24.3 75.7 33 7.4 45.4
17:25 1023 30.21 852 25.16 24.4 75.9 33 7.2 45
17:30 1023 30.21 852 25.16 24.3 75.7 33 7.4 45.3
17:35 1022 30.18 852 25.16 24.1 75.4 35 7.8 46
17:40 1022 30.18 852 25.16 24 75.2 35 7.9 46.2
17:45 1022 30.18 852 25.16 23.9 75 35 7.7 45.9
17:50 1022 30.18 852 25.16 23.8 74.8 34 7.3 45.1
17:55 1022 30.18 852 25.16 23.7 74.7 35 7.6 45.6
18:00 1023 30.21 852 25.16 23.6 74.5 35 7.6 45.6
18:05 1023 30.21 852 25.16 23.8 74.8 33 6.9 44.5
18:10 1022 30.18 852 25.16 23.8 74.8 34 7 44.7
18:15 1022 30.18 852 25.16 23.6 74.5 33 6.7 44.1
18:20 1022 30.18 852 25.16 23.5 74.2 34 7 44.5
18:25 1022 30.18 852 25.16 23.3 74 34 7 44.5
18:30 1022 30.18 852 25.16 23.2 73.7 35 7.2 44.9
18:35 1022 30.18 852 25.16 23 73.5 35 6.8 44.3
18:40 1022 30.18 852 25.16 22.9 73.2 35 7 44.6
18:45 1022 30.18 851 25.13 22.7 72.8 36 7 44.6
18:50 1022 30.18 851 25.13 22.5 72.5 37 7.3 45.1
18:55 1022 30.18 851 25.13 22.4 72.3 37 7.1 44.7
19:00 1022 30.18 851 25.13 22.3 72.1 37 7 44.5
19:05 1022 30.18 851 25.13 22.2 72 37 7 44.6
19:10 1022 30.18 851 25.13 22.1 71.7 38 7.1 44.8
19:15 1022 30.18 851 25.13 22 71.6 38 7.2 45
19:20 1022 30.18 851 25.13 21.8 71.3 38 7.2 45
19:25 1022 30.18 851 25.13 21.7 71 39 7.3 45.1
19:30 1022 30.18 851 25.13 21.5 70.7 39 7.1 44.8
19:35 1022 30.18 851 25.13 21.4 70.5 40 7.2 45
19:40 1022 30.18 851 25.13 21.3 70.3 40 7.2 45
19:45 1022 30.18 851 25.13 21.1 70 40 7.1 44.8
19:50 1022 30.18 851 25.13 21.1 69.9 40 7.1 44.7
19:55 1022 30.18 851 25.13 21 69.9 40 7.1 44.7
20:00 1022 30.18 851 25.13 20.9 69.7 40 7 44.7
20:05 1021 30.15 851 25.13 20.9 69.5 40 7 44.6
20:10 1021 30.15 851 25.13 20.8 69.4 40 7 44.6
20:15 1021 30.15 851 25.13 20.7 69.3 40 6.8 44.2
20:20 1022 30.18 851 25.13 20.8 69.5 39 6.5 43.6
20:25 1022 30.18 851 25.13 21 69.8 39 6.6 44
20:30 1022 30.18 851 25.13 20.9 69.6 39 6.5 43.7
20:35 1021 30.15 851 25.13 20.8 69.4 39 6.4 43.6
20:40 1021 30.15 851 25.13 20.7 69.2 39 6.5 43.7
20:45 1022 30.18 851 25.13 20.7 69.2 39 6.2 43.2
20:50 1022 30.18 851 25.13 20.6 69.1 39 6.3 43.3
20:55 1022 30.18 851 25.13 20.5 68.9 39 6.1 43
21:00 1022 30.18 851 25.13 20.5 68.8 39 6.2 43.2
21:05 1022 30.18 851 25.13 20.3 68.5 40 6.3 43.3
21:10 1022 30.18 851 25.13 20.2 68.4 39 6.1 43.1
21:15 1022 30.18 851 25.13 20.2 68.3 39 6.1 43
21:20 1022 30.18 851 25.13 20.1 68.1 39 6 42.7
21:25 1022 30.18 851 25.13 20 68 39 5.9 42.6
21:30 1022 30.18 851 25.13 19.9 67.9 39 5.8 42.4
21:35 1022 30.18 851 25.13 19.9 67.8 39 5.7 42.2
21:40 1022 30.18 851 25.13 19.9 67.8 38 5.5 41.8
21:45 1022 30.18 851 25.13 19.9 67.7 39 5.5 41.9
21:50 1022 30.18 851 25.13 19.8 67.6 39 5.5 41.9
21:55 1022 30.18 851 25.13 19.7 67.4 39 5.4 41.7
22:00 1022 30.18 851 25.13 19.7 67.4 39 5.4 41.7
22:05 1022 30.18 851 25.13 19.6 67.3 39 5.4 41.7
22:10 1022 30.18 851 25.13 19.5 67.2 38 5.1 41.2
22:15 1022 30.18 851 25.13 19.6 67.3 38 5 41
22:20 1022 30.18 851 25.13 19.6 67.2 38 5.1 41.1
22:25 1022 30.18 851 25.13 19.5 67 39 5.2 41.3
22:30 1022 30.18 851 25.13 19.4 66.9 39 5.1 41.1
22:35 1022 30.18 851 25.13 19.3 66.8 38 4.9 40.8
22:40 1022 30.18 851 25.13 19.3 66.7 39 4.9 40.9
22:45 1022 30.18 851 25.13 19.2 66.6 39 5 40.9
22:50 1022 30.18 851 25.13 19.1 66.3 39 4.8 40.6
22:55 1022 30.18 851 25.13 19 66.2 39 4.8 40.6
23:00 1022 30.18 851 25.13 18.9 66 39 4.6 40.4
23:05 1022 30.18 851 25.13 18.8 65.9 38 4.5 40
23:10 1022 30.18 851 25.13 18.7 65.7 38 4.3 39.7
23:15 1022 30.18 851 25.13 18.6 65.4 38 4.2 39.6
23:20 1021 30.15 851 25.13 18.5 65.2 38 3.9 39.1
23:25 1021 30.15 851 25.13 18.4 65.1 37 3.7 38.7
23:30 1022 30.18 851 25.13 18.3 64.9 37 3.6 38.5
23:35 1021 30.15 851 25.13 18.1 64.6 37 3.5 38.3
23:40 1021 30.15 850 25.1 18.1 64.6 37 3.3 37.9
23:45 1021 30.15 850 25.1 18.1 64.5 37 3.3 38
23:50 1021 30.15 850 25.1 18 64.4 37 3.1 37.6
23:55 1021 30.15 850 25.1 17.9 64.3 37 3.1 37.5
24:00 1021 30.15 850 25.1 17.8 64.1 37 3.1 37.7